sensor_id;sensor_type;location;lat;lon;timestamp;pressure;altitude;pressure_sealevel;temperature;humidity
67980;BME280;54760;47.490;19.030;2023-04-20T00:01:17;99994.09;;;10.75;69.57
67980;BME280;54760;47.490;19.030;2023-04-20T00:03:42;99994.22;;;10.68;70.28
67980;BME280;54760;47.490;19.030;2023-04-20T00:06:07;99992.94;;;10.72;69.75
67980;BME280;54760;47.490;19.030;2023-04-20T00:08:33;99994.09;;;10.75;69.52
67980;BME280;54760;47.490;19.030;2023-04-20T00:10:58;99994.78;;;10.79;69.39
67980;BME280;54760;47.490;19.030;2023-04-20T00:13:25;99990.12;;;10.76;69.49
67980;BME280;54760;47.490;19.030;2023-04-20T00:15:50;99991.59;;;10.61;69.55
67980;BME280;54760;47.490;19.030;2023-04-20T00:18:15;99994.00;;;10.59;69.97
67980;BME280;54760;47.490;19.030;2023-04-20T00:20:41;99991.69;;;10.57;70.05
67980;BME280;54760;47.490;19.030;2023-04-20T00:23:06;99990.22;;;10.72;69.29
67980;BME280;54760;47.490;19.030;2023-04-20T00:25:32;99996.66;;;10.42;70.49
67980;BME280;54760;47.490;19.030;2023-04-20T00:27:57;99991.34;;;10.55;70.48
67980;BME280;54760;47.490;19.030;2023-04-20T00:30:23;99996.31;;;10.40;71.86
67980;BME280;54760;47.490;19.030;2023-04-20T00:32:48;99994.88;;;10.32;72.03
67980;BME280;54760;47.490;19.030;2023-04-20T00:35:14;99986.19;;;10.37;72.27
67980;BME280;54760;47.490;19.030;2023-04-20T00:37:39;99985.22;;;10.48;71.70
67980;BME280;54760;47.490;19.030;2023-04-20T00:40:06;99986.13;;;10.41;72.19
67980;BME280;54760;47.490;19.030;2023-04-20T00:42:31;99985.91;;;10.52;71.96
67980;BME280;54760;47.490;19.030;2023-04-20T00:44:57;99986.37;;;10.27;73.10
67980;BME280;54760;47.490;19.030;2023-04-20T00:47:22;99988.56;;;10.12;73.60
67980;BME280;54760;47.490;19.030;2023-04-20T00:49:48;99980.50;;;10.28;73.22
67980;BME280;54760;47.490;19.030;2023-04-20T00:52:13;99982.59;;;10.21;73.50
67980;BME280;54760;47.490;19.030;2023-04-20T00:54:39;99986.03;;;10.02;74.59
67980;BME280;54760;47.490;19.030;2023-04-20T00:57:05;99979.13;;;10.17;73.83
67980;BME280;54760;47.490;19.030;2023-04-20T00:59:30;99983.53;;;10.34;72.68
67980;BME280;54760;47.490;19.030;2023-04-20T01:01:56;99974.00;;;10.42;72.22
67980;BME280;54760;47.490;19.030;2023-04-20T01:04:22;99980.13;;;10.26;72.77
67980;BME280;54760;47.490;19.030;2023-04-20T01:06:48;99978.84;;;10.34;72.60
67980;BME280;54760;47.490;19.030;2023-04-20T01:09:13;99981.50;;;10.38;72.35
67980;BME280;54760;47.490;19.030;2023-04-20T01:11:39;99978.34;;;10.39;71.84
67980;BME280;54760;47.490;19.030;2023-04-20T01:14:04;99975.53;;;10.63;70.73
67980;BME280;54760;47.490;19.030;2023-04-20T01:16:30;99978.97;;;10.67;70.60
67980;BME280;54760;47.490;19.030;2023-04-20T01:18:56;99980.50;;;10.28;72.40
67980;BME280;54760;47.490;19.030;2023-04-20T01:21:22;99978.63;;;10.25;72.85
67980;BME280;54760;47.490;19.030;2023-04-20T01:23:47;99972.91;;;10.16;72.97
67980;BME280;54760;47.490;19.030;2023-04-20T01:26:16;99975.50;;;10.23;72.85
67980;BME280;54760;47.490;19.030;2023-04-20T01:28:42;99978.47;;;10.09;73.17
67980;BME280;54760;47.490;19.030;2023-04-20T01:31:08;99973.13;;;10.02;73.64
67980;BME280;54760;47.490;19.030;2023-04-20T01:33:34;99970.28;;;10.09;73.03
67980;BME280;54760;47.490;19.030;2023-04-20T01:36:00;99967.91;;;9.88;74.17
67980;BME280;54760;47.490;19.030;2023-04-20T01:38:26;99969.25;;;10.23;72.70
67980;BME280;54760;47.490;19.030;2023-04-20T01:40:52;99978.84;;;10.34;71.57
67980;BME280;54760;47.490;19.030;2023-04-20T01:43:19;99974.03;;;10.19;72.22
67980;BME280;54760;47.490;19.030;2023-04-20T01:45:45;99977.66;;;10.35;71.49
67980;BME280;54760;47.490;19.030;2023-04-20T01:48:10;99982.75;;;10.10;72.93
67980;BME280;54760;47.490;19.030;2023-04-20T01:50:35;99970.75;;;10.04;73.27
67980;BME280;54760;47.490;19.030;2023-04-20T01:53:01;99976.22;;;10.04;73.27
67980;BME280;54760;47.490;19.030;2023-04-20T01:55:26;99971.88;;;10.07;73.14
67980;BME280;54760;47.490;19.030;2023-04-20T01:57:52;99968.84;;;10.01;73.65
67980;BME280;54760;47.490;19.030;2023-04-20T02:00:17;99966.12;;;10.01;73.54
67980;BME280;54760;47.490;19.030;2023-04-20T02:02:43;99973.84;;;10.06;73.25
67980;BME280;54760;47.490;19.030;2023-04-20T02:05:08;99977.87;;;9.98;73.96
67980;BME280;54760;47.490;19.030;2023-04-20T02:07:34;99971.59;;;10.01;73.46
67980;BME280;54760;47.490;19.030;2023-04-20T02:09:59;99968.72;;;10.08;72.78
67980;BME280;54760;47.490;19.030;2023-04-20T02:12:25;99975.28;;;9.91;74.03
67980;BME280;54760;47.490;19.030;2023-04-20T02:14:50;99975.31;;;9.87;74.16
67980;BME280;54760;47.490;19.030;2023-04-20T02:17:16;99976.16;;;9.61;75.55
67980;BME280;54760;47.490;19.030;2023-04-20T02:19:42;99974.84;;;9.69;75.12
67980;BME280;54760;47.490;19.030;2023-04-20T02:22:07;99979.97;;;9.40;76.55
67980;BME280;54760;47.490;19.030;2023-04-20T02:24:33;99981.59;;;9.38;76.85
67980;BME280;54760;47.490;19.030;2023-04-20T02:26:58;99977.72;;;9.35;76.91
67980;BME280;54760;47.490;19.030;2023-04-20T02:29:24;99982.19;;;9.49;76.79
67980;BME280;54760;47.490;19.030;2023-04-20T02:31:49;99984.00;;;9.32;77.25
67980;BME280;54760;47.490;19.030;2023-04-20T02:34:15;99978.56;;;9.29;77.50
67980;BME280;54760;47.490;19.030;2023-04-20T02:36:40;99978.69;;;9.22;78.26
67980;BME280;54760;47.490;19.030;2023-04-20T02:39:06;99974.25;;;9.31;77.89
67980;BME280;54760;47.490;19.030;2023-04-20T02:41:31;99975.66;;;9.16;78.72
67980;BME280;54760;47.490;19.030;2023-04-20T02:43:57;99975.34;;;9.37;77.49
67980;BME280;54760;47.490;19.030;2023-04-20T02:46:22;99972.34;;;9.55;76.92
67980;BME280;54760;47.490;19.030;2023-04-20T02:48:47;99976.31;;;9.24;78.27
67980;BME280;54760;47.490;19.030;2023-04-20T02:51:13;99983.38;;;9.21;78.45
67980;BME280;54760;47.490;19.030;2023-04-20T02:53:38;99982.34;;;9.11;78.89
67980;BME280;54760;47.490;19.030;2023-04-20T02:56:04;99989.75;;;9.11;78.96
67980;BME280;54760;47.490;19.030;2023-04-20T02:58:29;99986.66;;;9.09;79.30
67980;BME280;54760;47.490;19.030;2023-04-20T03:00:59;99989.81;;;9.34;77.91
67980;BME280;54760;47.490;19.030;2023-04-20T03:03:25;99988.75;;;9.55;76.93
67980;BME280;54760;47.490;19.030;2023-04-20T03:05:51;99991.47;;;9.55;76.79
67980;BME280;54760;47.490;19.030;2023-04-20T03:08:16;99998.34;;;9.67;76.27
67980;BME280;54760;47.490;19.030;2023-04-20T03:10:42;99989.97;;;9.77;75.77
67980;BME280;54760;47.490;19.030;2023-04-20T03:13:07;100001.62;;;9.54;76.71
67980;BME280;54760;47.490;19.030;2023-04-20T03:15:33;100001.53;;;9.62;76.42
67980;BME280;54760;47.490;19.030;2023-04-20T03:17:58;99994.03;;;9.39;76.97
67980;BME280;54760;47.490;19.030;2023-04-20T03:20:24;100001.94;;;9.60;76.35
67980;BME280;54760;47.490;19.030;2023-04-20T03:22:49;99999.28;;;9.53;76.49
67980;BME280;54760;47.490;19.030;2023-04-20T03:25:15;99988.88;;;9.44;76.45
67980;BME280;54760;47.490;19.030;2023-04-20T03:27:40;99997.56;;;9.39;76.61
67980;BME280;54760;47.490;19.030;2023-04-20T03:30:06;99989.88;;;9.57;76.14
67980;BME280;54760;47.490;19.030;2023-04-20T03:32:32;99998.97;;;9.74;74.76
67980;BME280;54760;47.490;19.030;2023-04-20T03:34:57;99984.75;;;9.60;75.44
67980;BME280;54760;47.490;19.030;2023-04-20T03:37:23;99996.88;;;9.58;75.86
67980;BME280;54760;47.490;19.030;2023-04-20T03:39:48;99995.75;;;9.56;76.24
67980;BME280;54760;47.490;19.030;2023-04-20T03:42:14;99994.34;;;9.71;75.10
67980;BME280;54760;47.490;19.030;2023-04-20T03:44:39;100001.22;;;9.56;76.11
67980;BME280;54760;47.490;19.030;2023-04-20T03:47:04;99997.00;;;9.51;76.33
67980;BME280;54760;47.490;19.030;2023-04-20T03:49:30;100003.69;;;9.47;77.05
67980;BME280;54760;47.490;19.030;2023-04-20T03:51:55;100004.56;;;9.67;76.03
67980;BME280;54760;47.490;19.030;2023-04-20T03:54:21;100006.37;;;9.50;76.79
67980;BME280;54760;47.490;19.030;2023-04-20T03:56:46;100009.47;;;9.52;76.90
67980;BME280;54760;47.490;19.030;2023-04-20T03:59:14;100006.94;;;9.65;76.29
67980;BME280;54760;47.490;19.030;2023-04-20T04:01:39;100008.66;;;9.55;76.20
67980;BME280;54760;47.490;19.030;2023-04-20T04:04:05;100017.03;;;9.68;75.78
67980;BME280;54760;47.490;19.030;2023-04-20T04:06:30;100007.66;;;9.69;75.72
67980;BME280;54760;47.490;19.030;2023-04-20T04:08:56;100006.66;;;9.83;75.27
67980;BME280;54760;47.490;19.030;2023-04-20T04:11:22;100005.91;;;9.55;76.55
67980;BME280;54760;47.490;19.030;2023-04-20T04:13:49;99999.75;;;9.75;76.21
67980;BME280;54760;47.490;19.030;2023-04-20T04:16:14;100006.16;;;9.88;75.38
67980;BME280;54760;47.490;19.030;2023-04-20T04:18:43;100005.91;;;10.06;75.02
67980;BME280;54760;47.490;19.030;2023-04-20T04:21:08;100009.91;;;9.97;74.97
67980;BME280;54760;47.490;19.030;2023-04-20T04:23:34;100011.13;;;9.96;75.51
67980;BME280;54760;47.490;19.030;2023-04-20T04:26:01;100012.72;;;9.94;75.63
67980;BME280;54760;47.490;19.030;2023-04-20T04:28:29;100007.97;;;9.98;75.73
67980;BME280;54760;47.490;19.030;2023-04-20T04:30:55;100004.97;;;10.16;74.54
67980;BME280;54760;47.490;19.030;2023-04-20T04:33:21;100006.91;;;10.38;73.68
67980;BME280;54760;47.490;19.030;2023-04-20T04:35:47;100012.38;;;10.38;73.55
67980;BME280;54760;47.490;19.030;2023-04-20T04:38:13;100001.19;;;10.29;73.96
67980;BME280;54760;47.490;19.030;2023-04-20T04:40:39;100007.19;;;10.44;73.59
67980;BME280;54760;47.490;19.030;2023-04-20T04:43:07;100011.25;;;10.56;73.75
67980;BME280;54760;47.490;19.030;2023-04-20T04:45:37;100007.53;;;10.66;72.65
67980;BME280;54760;47.490;19.030;2023-04-20T04:48:04;100012.31;;;10.62;72.91
67980;BME280;54760;47.490;19.030;2023-04-20T04:50:29;100017.31;;;10.67;73.52
67980;BME280;54760;47.490;19.030;2023-04-20T04:52:55;100014.63;;;10.63;73.30
67980;BME280;54760;47.490;19.030;2023-04-20T04:55:21;100012.97;;;10.69;72.70
67980;BME280;54760;47.490;19.030;2023-04-20T04:57:46;100016.25;;;10.61;72.75
67980;BME280;54760;47.490;19.030;2023-04-20T05:00:12;100017.50;;;10.76;72.06
67980;BME280;54760;47.490;19.030;2023-04-20T05:02:38;100018.09;;;10.87;71.89
67980;BME280;54760;47.490;19.030;2023-04-20T05:05:04;100017.38;;;10.83;71.99
67980;BME280;54760;47.490;19.030;2023-04-20T05:07:29;100019.63;;;10.88;71.81
67980;BME280;54760;47.490;19.030;2023-04-20T05:09:55;100017.78;;;11.01;71.36
67980;BME280;54760;47.490;19.030;2023-04-20T05:12:20;100024.38;;;11.23;70.43
67980;BME280;54760;47.490;19.030;2023-04-20T05:14:46;100028.84;;;11.34;70.27
67980;BME280;54760;47.490;19.030;2023-04-20T05:17:11;100025.28;;;11.53;69.28
67980;BME280;54760;47.490;19.030;2023-04-20T05:19:37;100027.06;;;11.43;69.63
67980;BME280;54760;47.490;19.030;2023-04-20T05:22:03;100030.59;;;11.24;69.74
67980;BME280;54760;47.490;19.030;2023-04-20T05:24:29;100030.16;;;11.45;69.22
67980;BME280;54760;47.490;19.030;2023-04-20T05:26:54;100036.72;;;11.67;68.87
67980;BME280;54760;47.490;19.030;2023-04-20T05:29:20;100029.03;;;11.95;68.60
67980;BME280;54760;47.490;19.030;2023-04-20T05:31:45;100023.78;;;12.17;66.92
67980;BME280;54760;47.490;19.030;2023-04-20T05:34:11;100031.31;;;12.29;66.26
67980;BME280;54760;47.490;19.030;2023-04-20T05:36:36;100034.56;;;12.40;65.45
67980;BME280;54760;47.490;19.030;2023-04-20T05:39:02;100027.94;;;12.37;65.51
67980;BME280;54760;47.490;19.030;2023-04-20T05:41:27;100040.47;;;12.67;65.08
67980;BME280;54760;47.490;19.030;2023-04-20T05:43:53;100030.72;;;13.08;64.03
67980;BME280;54760;47.490;19.030;2023-04-20T05:46:19;100038.06;;;13.52;61.95
67980;BME280;54760;47.490;19.030;2023-04-20T05:48:45;100032.09;;;13.41;62.41
67980;BME280;54760;47.490;19.030;2023-04-20T05:51:10;100043.72;;;13.20;63.74
67980;BME280;54760;47.490;19.030;2023-04-20T05:53:36;100036.72;;;13.19;63.50
67980;BME280;54760;47.490;19.030;2023-04-20T05:56:01;100039.34;;;13.35;62.90
67980;BME280;54760;47.490;19.030;2023-04-20T05:58:27;100043.22;;;13.75;61.43
67980;BME280;54760;47.490;19.030;2023-04-20T06:00:53;100047.19;;;14.34;59.34
67980;BME280;54760;47.490;19.030;2023-04-20T06:03:18;100052.47;;;15.81;53.92
67980;BME280;54760;47.490;19.030;2023-04-20T06:05:44;100046.00;;;16.42;51.16
67980;BME280;54760;47.490;19.030;2023-04-20T06:08:10;100052.56;;;17.26;48.60
67980;BME280;54760;47.490;19.030;2023-04-20T06:10:35;100035.97;;;18.73;46.69
67980;BME280;54760;47.490;19.030;2023-04-20T06:13:01;100044.13;;;18.91;43.33
67980;BME280;54760;47.490;19.030;2023-04-20T06:15:26;100043.09;;;19.97;42.36
67980;BME280;54760;47.490;19.030;2023-04-20T06:17:52;100051.56;;;20.43;40.83
67980;BME280;54760;47.490;19.030;2023-04-20T06:20:17;100044.97;;;20.86;38.72
67980;BME280;54760;47.490;19.030;2023-04-20T06:22:44;100048.66;;;20.77;38.33
67980;BME280;54760;47.490;19.030;2023-04-20T06:25:10;100050.72;;;20.57;38.59
67980;BME280;54760;47.490;19.030;2023-04-20T06:27:35;100048.38;;;20.15;39.16
67980;BME280;54760;47.490;19.030;2023-04-20T06:30:01;100051.69;;;21.00;37.06
67980;BME280;54760;47.490;19.030;2023-04-20T06:32:28;100048.56;;;21.44;36.36
67980;BME280;54760;47.490;19.030;2023-04-20T06:34:53;100056.66;;;21.79;35.56
67980;BME280;54760;47.490;19.030;2023-04-20T06:37:18;100047.72;;;22.06;34.97
67980;BME280;54760;47.490;19.030;2023-04-20T06:39:44;100058.25;;;22.33;34.39
67980;BME280;54760;47.490;19.030;2023-04-20T06:42:09;100052.47;;;22.48;34.67
67980;BME280;54760;47.490;19.030;2023-04-20T06:44:35;100063.53;;;22.20;34.34
67980;BME280;54760;47.490;19.030;2023-04-20T06:47:00;100062.62;;;22.45;34.27
67980;BME280;54760;47.490;19.030;2023-04-20T06:49:26;100059.75;;;19.97;39.05
67980;BME280;54760;47.490;19.030;2023-04-20T06:51:51;100063.31;;;18.80;41.24
67980;BME280;54760;47.490;19.030;2023-04-20T06:54:17;100074.87;;;17.83;43.28
67980;BME280;54760;47.490;19.030;2023-04-20T06:56:42;100068.66;;;17.46;44.04
67980;BME280;54760;47.490;19.030;2023-04-20T06:59:07;100054.47;;;16.93;46.51
67980;BME280;54760;47.490;19.030;2023-04-20T07:01:33;100058.34;;;16.59;46.71
67980;BME280;54760;47.490;19.030;2023-04-20T07:03:58;100058.75;;;16.30;47.36
67980;BME280;54760;47.490;19.030;2023-04-20T07:06:24;100062.12;;;16.25;47.03
67980;BME280;54760;47.490;19.030;2023-04-20T07:08:49;100056.88;;;16.27;47.49
67980;BME280;54760;47.490;19.030;2023-04-20T07:11:15;100064.13;;;16.34;47.08
67980;BME280;54760;47.490;19.030;2023-04-20T07:13:40;100072.56;;;16.39;47.16
67980;BME280;54760;47.490;19.030;2023-04-20T07:16:06;100060.56;;;16.15;47.17
67980;BME280;54760;47.490;19.030;2023-04-20T07:18:32;100059.03;;;16.23;47.15
67980;BME280;54760;47.490;19.030;2023-04-20T07:20:57;100071.63;;;16.33;47.07
67980;BME280;54760;47.490;19.030;2023-04-20T07:23:22;100065.34;;;16.33;46.74
67980;BME280;54760;47.490;19.030;2023-04-20T07:25:48;100068.06;;;16.15;47.02
67980;BME280;54760;47.490;19.030;2023-04-20T07:28:13;100061.31;;;16.16;47.62
67980;BME280;54760;47.490;19.030;2023-04-20T07:30:39;100062.69;;;16.11;48.17
67980;BME280;54760;47.490;19.030;2023-04-20T07:33:04;100065.81;;;16.40;46.97
67980;BME280;54760;47.490;19.030;2023-04-20T07:35:30;100067.31;;;16.32;47.21
67980;BME280;54760;47.490;19.030;2023-04-20T07:37:56;100063.41;;;16.70;46.27
67980;BME280;54760;47.490;19.030;2023-04-20T07:40:21;100058.16;;;16.99;45.50
67980;BME280;54760;47.490;19.030;2023-04-20T07:42:47;100066.31;;;16.94;45.34
67980;BME280;54760;47.490;19.030;2023-04-20T07:45:12;100067.22;;;17.00;45.03
67980;BME280;54760;47.490;19.030;2023-04-20T07:47:38;100071.69;;;16.79;45.58
67980;BME280;54760;47.490;19.030;2023-04-20T07:50:05;100069.06;;;17.03;45.37
67980;BME280;54760;47.490;19.030;2023-04-20T07:52:31;100073.03;;;17.20;43.98
67980;BME280;54760;47.490;19.030;2023-04-20T07:54:57;100075.78;;;17.29;44.04
67980;BME280;54760;47.490;19.030;2023-04-20T07:57:24;100067.50;;;17.20;43.88
67980;BME280;54760;47.490;19.030;2023-04-20T07:59:50;100075.47;;;17.27;43.84
67980;BME280;54760;47.490;19.030;2023-04-20T08:02:15;100071.00;;;17.39;43.42
67980;BME280;54760;47.490;19.030;2023-04-20T08:04:41;100072.78;;;17.69;42.16
67980;BME280;54760;47.490;19.030;2023-04-20T08:07:11;100067.97;;;17.79;41.77
67980;BME280;54760;47.490;19.030;2023-04-20T08:09:37;100069.38;;;17.65;41.91
67980;BME280;54760;47.490;19.030;2023-04-20T08:12:03;100067.25;;;17.69;42.45
67980;BME280;54760;47.490;19.030;2023-04-20T08:14:28;100062.34;;;17.97;41.80
67980;BME280;54760;47.490;19.030;2023-04-20T08:16:54;100067.31;;;18.16;41.23
67980;BME280;54760;47.490;19.030;2023-04-20T08:19:20;100068.75;;;17.70;42.26
67980;BME280;54760;47.490;19.030;2023-04-20T08:21:45;100065.19;;;17.79;41.75
67980;BME280;54760;47.490;19.030;2023-04-20T08:24:11;100061.31;;;17.85;41.51
67980;BME280;54760;47.490;19.030;2023-04-20T08:26:37;100062.25;;;17.82;41.22
67980;BME280;54760;47.490;19.030;2023-04-20T08:29:03;100064.37;;;17.87;41.06
67980;BME280;54760;47.490;19.030;2023-04-20T08:31:29;100061.22;;;17.70;41.88
67980;BME280;54760;47.490;19.030;2023-04-20T08:33:54;100062.75;;;18.04;41.41
67980;BME280;54760;47.490;19.030;2023-04-20T08:36:20;100052.56;;;18.34;41.13
67980;BME280;54760;47.490;19.030;2023-04-20T08:38:45;100065.75;;;18.39;39.48
67980;BME280;54760;47.490;19.030;2023-04-20T08:41:11;100060.38;;;18.83;39.23
67980;BME280;54760;47.490;19.030;2023-04-20T08:43:38;100054.34;;;18.85;38.46
67980;BME280;54760;47.490;19.030;2023-04-20T08:46:03;100053.03;;;18.95;39.13
67980;BME280;54760;47.490;19.030;2023-04-20T08:48:36;100052.72;;;19.37;37.74
67980;BME280;54760;47.490;19.030;2023-04-20T08:51:03;100057.72;;;19.33;37.11
67980;BME280;54760;47.490;19.030;2023-04-20T08:53:29;100053.13;;;19.30;37.61
67980;BME280;54760;47.490;19.030;2023-04-20T08:55:55;100055.16;;;19.44;37.12
67980;BME280;54760;47.490;19.030;2023-04-20T08:58:23;100056.47;;;19.04;37.99
67980;BME280;54760;47.490;19.030;2023-04-20T09:00:49;100056.94;;;19.62;37.17
67980;BME280;54760;47.490;19.030;2023-04-20T09:03:15;100057.66;;;19.92;35.81
67980;BME280;54760;47.490;19.030;2023-04-20T09:05:43;100055.13;;;19.73;35.83
67980;BME280;54760;47.490;19.030;2023-04-20T09:08:08;100056.31;;;19.87;35.59
67980;BME280;54760;47.490;19.030;2023-04-20T09:10:42;100060.56;;;19.82;35.70
67980;BME280;54760;47.490;19.030;2023-04-20T09:13:21;100056.19;;;19.96;35.06
67980;BME280;54760;47.490;19.030;2023-04-20T09:15:46;100049.81;;;20.45;34.31
67980;BME280;54760;47.490;19.030;2023-04-20T09:18:13;100052.66;;;20.51;34.28
67980;BME280;54760;47.490;19.030;2023-04-20T09:20:39;100042.53;;;20.73;34.49
67980;BME280;54760;47.490;19.030;2023-04-20T09:23:15;100052.75;;;21.08;33.98
67980;BME280;54760;47.490;19.030;2023-04-20T09:25:42;100044.22;;;20.65;34.25
67980;BME280;54760;47.490;19.030;2023-04-20T09:28:11;100051.16;;;20.15;36.05
67980;BME280;54760;47.490;19.030;2023-04-20T09:30:47;100055.62;;;20.27;35.44
67980;BME280;54760;47.490;19.030;2023-04-20T09:33:13;100045.22;;;20.42;34.81
67980;BME280;54760;47.490;19.030;2023-04-20T09:35:43;100054.88;;;20.93;33.55
67980;BME280;54760;47.490;19.030;2023-04-20T09:38:14;100051.09;;;21.16;32.78
67980;BME280;54760;47.490;19.030;2023-04-20T09:40:40;100041.28;;;21.21;32.09
67980;BME280;54760;47.490;19.030;2023-04-20T09:43:17;100043.56;;;21.22;32.59
67980;BME280;54760;47.490;19.030;2023-04-20T09:45:43;100039.69;;;21.45;31.20
67980;BME280;54760;47.490;19.030;2023-04-20T09:48:09;100040.50;;;21.51;30.93
67980;BME280;54760;47.490;19.030;2023-04-20T09:50:35;100041.91;;;21.10;32.08
67980;BME280;54760;47.490;19.030;2023-04-20T09:53:04;100039.03;;;21.25;31.56
67980;BME280;54760;47.490;19.030;2023-04-20T09:55:31;100041.53;;;21.54;31.08
67980;BME280;54760;47.490;19.030;2023-04-20T09:57:56;100040.69;;;21.42;31.80
67980;BME280;54760;47.490;19.030;2023-04-20T10:00:23;100040.72;;;21.85;31.24
67980;BME280;54760;47.490;19.030;2023-04-20T10:02:49;100034.94;;;21.51;31.92
67980;BME280;54760;47.490;19.030;2023-04-20T10:05:15;100031.72;;;21.58;32.71
67980;BME280;54760;47.490;19.030;2023-04-20T10:07:41;100044.19;;;21.37;32.67
67980;BME280;54760;47.490;19.030;2023-04-20T10:10:14;100031.75;;;22.01;31.89
67980;BME280;54760;47.490;19.030;2023-04-20T10:15:16;100029.84;;;21.87;31.68
67980;BME280;54760;47.490;19.030;2023-04-20T10:17:42;100023.44;;;22.12;30.81
67980;BME280;54760;47.490;19.030;2023-04-20T10:22:43;100030.59;;;22.24;31.54
67980;BME280;54760;47.490;19.030;2023-04-20T10:25:21;100022.91;;;22.08;32.00
67980;BME280;54760;47.490;19.030;2023-04-20T10:27:55;100029.88;;;22.35;31.78
67980;BME280;54760;47.490;19.030;2023-04-20T10:30:22;100016.66;;;22.30;31.88
67980;BME280;54760;47.490;19.030;2023-04-20T10:32:48;100021.22;;;21.85;32.09
67980;BME280;54760;47.490;19.030;2023-04-20T10:35:14;100017.81;;;22.01;31.89
67980;BME280;54760;47.490;19.030;2023-04-20T10:37:50;100017.94;;;22.23;31.65
67980;BME280;54760;47.490;19.030;2023-04-20T10:40:16;100017.25;;;22.45;31.35
67980;BME280;54760;47.490;19.030;2023-04-20T10:42:44;100017.19;;;21.86;32.25
67980;BME280;54760;47.490;19.030;2023-04-20T10:45:10;100010.53;;;22.20;31.85
67980;BME280;54760;47.490;19.030;2023-04-20T10:47:36;100012.63;;;22.31;32.34
67980;BME280;54760;47.490;19.030;2023-04-20T10:50:15;100009.84;;;22.36;31.65
67980;BME280;54760;47.490;19.030;2023-04-20T10:52:42;100005.06;;;21.89;32.29
67980;BME280;54760;47.490;19.030;2023-04-20T10:55:20;99998.81;;;21.62;32.23
67980;BME280;54760;47.490;19.030;2023-04-20T10:57:46;100005.00;;;21.78;32.39
67980;BME280;54760;47.490;19.030;2023-04-20T11:00:17;100001.62;;;22.11;31.57
67980;BME280;54760;47.490;19.030;2023-04-20T11:02:50;99991.66;;;21.93;31.64
67980;BME280;54760;47.490;19.030;2023-04-20T11:05:19;99992.34;;;22.30;31.80
67980;BME280;54760;47.490;19.030;2023-04-20T11:07:47;99981.47;;;22.43;31.11
67980;BME280;54760;47.490;19.030;2023-04-20T11:10:12;99982.50;;;22.40;30.67
67980;BME280;54760;47.490;19.030;2023-04-20T11:12:38;99983.34;;;22.04;31.71
67980;BME280;54760;47.490;19.030;2023-04-20T11:15:04;99990.31;;;21.40;32.55
67980;BME280;54760;47.490;19.030;2023-04-20T11:17:33;99987.22;;;21.33;33.01
67980;BME280;54760;47.490;19.030;2023-04-20T11:20:13;99983.91;;;21.71;32.28
67980;BME280;54760;47.490;19.030;2023-04-20T11:22:40;99976.66;;;21.85;32.36
67980;BME280;54760;47.490;19.030;2023-04-20T11:25:07;99976.69;;;21.90;32.40
67980;BME280;54760;47.490;19.030;2023-04-20T11:27:34;99979.31;;;22.05;31.83
67980;BME280;54760;47.490;19.030;2023-04-20T11:30:00;99975.16;;;22.48;30.67
67980;BME280;54760;47.490;19.030;2023-04-20T11:32:33;99967.22;;;22.25;31.29
67980;BME280;54760;47.490;19.030;2023-04-20T11:35:06;99975.75;;;21.99;31.48
67980;BME280;54760;47.490;19.030;2023-04-20T11:37:32;99970.59;;;22.51;30.57
67980;BME280;54760;47.490;19.030;2023-04-20T11:40:07;99967.12;;;22.73;30.43
67980;BME280;54760;47.490;19.030;2023-04-20T11:42:34;99966.06;;;22.65;30.28
67980;BME280;54760;47.490;19.030;2023-04-20T11:45:01;99975.25;;;22.06;30.31
67980;BME280;54760;47.490;19.030;2023-04-20T11:47:26;99968.06;;;22.42;30.41
67980;BME280;54760;47.490;19.030;2023-04-20T11:49:52;99965.97;;;22.26;30.33
67980;BME280;54760;47.490;19.030;2023-04-20T11:52:17;99974.81;;;22.13;29.87
67980;BME280;54760;47.490;19.030;2023-04-20T11:54:43;99969.06;;;22.44;29.33
67980;BME280;54760;47.490;19.030;2023-04-20T11:57:08;99959.19;;;22.55;29.06
67980;BME280;54760;47.490;19.030;2023-04-20T11:59:34;99959.78;;;21.94;29.81
67980;BME280;54760;47.490;19.030;2023-04-20T12:02:00;99959.78;;;21.57;30.51
67980;BME280;54760;47.490;19.030;2023-04-20T12:04:28;99962.47;;;21.83;30.88
67980;BME280;54760;47.490;19.030;2023-04-20T12:06:54;99970.50;;;21.70;30.46
67980;BME280;54760;47.490;19.030;2023-04-20T12:09:19;99967.78;;;21.86;30.22
67980;BME280;54760;47.490;19.030;2023-04-20T12:11:45;99962.97;;;21.87;30.05
67980;BME280;54760;47.490;19.030;2023-04-20T12:14:11;99949.47;;;22.17;29.54
67980;BME280;54760;47.490;19.030;2023-04-20T12:16:36;99952.03;;;22.31;28.22
67980;BME280;54760;47.490;19.030;2023-04-20T12:19:02;99946.84;;;21.96;28.51
67980;BME280;54760;47.490;19.030;2023-04-20T12:21:27;99947.66;;;22.08;28.48
67980;BME280;54760;47.490;19.030;2023-04-20T12:23:52;99945.25;;;22.60;27.96
67980;BME280;54760;47.490;19.030;2023-04-20T12:26:18;99950.25;;;22.34;28.73
67980;BME280;54760;47.490;19.030;2023-04-20T12:28:43;99945.53;;;22.62;28.08
67980;BME280;54760;47.490;19.030;2023-04-20T12:31:09;99939.09;;;22.34;28.93
67980;BME280;54760;47.490;19.030;2023-04-20T12:33:34;99939.06;;;22.12;29.79
67980;BME280;54760;47.490;19.030;2023-04-20T12:36:00;99941.91;;;22.28;29.52
67980;BME280;54760;47.490;19.030;2023-04-20T12:38:25;99925.47;;;22.53;28.60
67980;BME280;54760;47.490;19.030;2023-04-20T12:40:51;99936.50;;;22.02;28.99
67980;BME280;54760;47.490;19.030;2023-04-20T12:43:16;99932.75;;;22.17;29.14
67980;BME280;54760;47.490;19.030;2023-04-20T12:45:41;99933.31;;;22.48;28.28